sensor_id;sensor_type;location;lat;lon;timestamp;P1;durP1;ratioP1;P2;durP2;ratioP2
4424;SDS011;2225;53.568;13.266;2023-10-13T00:00:30;16.03;;;3.77;;
4424;SDS011;2225;53.568;13.266;2023-10-13T00:03:02;21.93;;;4.07;;
4424;SDS011;2225;53.568;13.266;2023-10-13T00:05:32;9.70;;;3.63;;
4424;SDS011;2225;53.568;13.266;2023-10-13T00:08:00;13.33;;;4.37;;
4424;SDS011;2225;53.568;13.266;2023-10-13T00:10:29;11.67;;;3.77;;
4424;SDS011;2225;53.568;13.266;2023-10-13T00:12:57;16.83;;;4.43;;
4424;SDS011;2225;53.568;13.266;2023-10-13T00:15:39;11.40;;;3.40;;
4424;SDS011;2225;53.568;13.266;2023-10-13T00:18:18;14.30;;;3.57;;
4424;SDS011;2225;53.568;13.266;2023-10-13T00:20:45;10.00;;;3.50;;
4424;SDS011;2225;53.568;13.266;2023-10-13T00:23:16;14.83;;;3.83;;
4424;SDS011;2225;53.568;13.266;2023-10-13T00:25:49;12.53;;;3.30;;
4424;SDS011;2225;53.568;13.266;2023-10-13T00:28:16;15.00;;;3.83;;
4424;SDS011;2225;53.568;13.266;2023-10-13T00:30:50;20.00;;;3.20;;
4424;SDS011;2225;53.568;13.266;2023-10-13T00:33:27;15.43;;;3.90;;
4424;SDS011;2225;53.568;13.266;2023-10-13T00:35:54;11.10;;;3.27;;
4424;SDS011;2225;53.568;13.266;2023-10-13T00:38:24;12.53;;;2.90;;
4424;SDS011;2225;53.568;13.266;2023-10-13T00:40:51;13.00;;;3.53;;
4424;SDS011;2225;53.568;13.266;2023-10-13T00:43:19;11.00;;;3.60;;
4424;SDS011;2225;53.568;13.266;2023-10-13T00:45:51;14.13;;;3.80;;
4424;SDS011;2225;53.568;13.266;2023-10-13T00:48:31;13.13;;;3.00;;
4424;SDS011;2225;53.568;13.266;2023-10-13T00:51:09;12.87;;;4.27;;
4424;SDS011;2225;53.568;13.266;2023-10-13T00:54:02;11.60;;;3.40;;
4424;SDS011;2225;53.568;13.266;2023-10-13T00:56:34;14.97;;;4.50;;
4424;SDS011;2225;53.568;13.266;2023-10-13T00:59:09;27.17;;;4.10;;
4424;SDS011;2225;53.568;13.266;2023-10-13T01:01:37;19.40;;;4.50;;
4424;SDS011;2225;53.568;13.266;2023-10-13T01:04:07;17.40;;;3.57;;
4424;SDS011;2225;53.568;13.266;2023-10-13T01:06:38;16.43;;;3.20;;
4424;SDS011;2225;53.568;13.266;2023-10-13T01:09:06;10.47;;;3.37;;
4424;SDS011;2225;53.568;13.266;2023-10-13T01:11:46;9.57;;;2.90;;
4424;SDS011;2225;53.568;13.266;2023-10-13T01:14:19;9.57;;;2.37;;
4424;SDS011;2225;53.568;13.266;2023-10-13T01:16:47;11.10;;;2.90;;
4424;SDS011;2225;53.568;13.266;2023-10-13T01:19:19;11.80;;;2.47;;
4424;SDS011;2225;53.568;13.266;2023-10-13T01:21:51;9.40;;;2.63;;
4424;SDS011;2225;53.568;13.266;2023-10-13T01:24:37;11.00;;;2.33;;
4424;SDS011;2225;53.568;13.266;2023-10-13T01:27:05;15.40;;;3.30;;
4424;SDS011;2225;53.568;13.266;2023-10-13T01:29:53;13.70;;;2.40;;
4424;SDS011;2225;53.568;13.266;2023-10-13T01:32:32;14.67;;;3.03;;
4424;SDS011;2225;53.568;13.266;2023-10-13T01:34:59;11.53;;;3.17;;
4424;SDS011;2225;53.568;13.266;2023-10-13T01:37:32;21.40;;;3.10;;
4424;SDS011;2225;53.568;13.266;2023-10-13T01:39:59;13.67;;;3.17;;
4424;SDS011;2225;53.568;13.266;2023-10-13T01:42:26;12.20;;;2.87;;
4424;SDS011;2225;53.568;13.266;2023-10-13T01:44:54;12.10;;;2.60;;
4424;SDS011;2225;53.568;13.266;2023-10-13T01:47:24;13.17;;;3.00;;
4424;SDS011;2225;53.568;13.266;2023-10-13T01:49:54;13.37;;;3.00;;
4424;SDS011;2225;53.568;13.266;2023-10-13T01:52:24;9.67;;;2.50;;
4424;SDS011;2225;53.568;13.266;2023-10-13T01:54:53;20.97;;;3.30;;
4424;SDS011;2225;53.568;13.266;2023-10-13T01:57:20;10.20;;;2.73;;
4424;SDS011;2225;53.568;13.266;2023-10-13T01:59:50;19.50;;;3.70;;
4424;SDS011;2225;53.568;13.266;2023-10-13T02:02:17;18.40;;;4.83;;
4424;SDS011;2225;53.568;13.266;2023-10-13T02:04:57;17.50;;;2.77;;
4424;SDS011;2225;53.568;13.266;2023-10-13T02:07:27;15.27;;;3.07;;
4424;SDS011;2225;53.568;13.266;2023-10-13T02:10:01;13.60;;;2.77;;
4424;SDS011;2225;53.568;13.266;2023-10-13T02:12:32;9.67;;;3.00;;
4424;SDS011;2225;53.568;13.266;2023-10-13T02:15:11;18.03;;;3.53;;
4424;SDS011;2225;53.568;13.266;2023-10-13T02:17:46;15.73;;;3.43;;
4424;SDS011;2225;53.568;13.266;2023-10-13T02:20:18;8.70;;;2.40;;
4424;SDS011;2225;53.568;13.266;2023-10-13T02:22:49;20.27;;;3.13;;
4424;SDS011;2225;53.568;13.266;2023-10-13T02:25:17;16.60;;;3.47;;
4424;SDS011;2225;53.568;13.266;2023-10-13T02:28:17;21.70;;;2.57;;
4424;SDS011;2225;53.568;13.266;2023-10-13T02:30:48;11.20;;;2.50;;
4424;SDS011;2225;53.568;13.266;2023-10-13T02:33:17;19.13;;;3.70;;
4424;SDS011;2225;53.568;13.266;2023-10-13T02:35:56;18.80;;;3.87;;
4424;SDS011;2225;53.568;13.266;2023-10-13T02:38:24;28.90;;;3.67;;
4424;SDS011;2225;53.568;13.266;2023-10-13T02:41:15;15.23;;;3.20;;
4424;SDS011;2225;53.568;13.266;2023-10-13T02:43:54;13.23;;;3.30;;
4424;SDS011;2225;53.568;13.266;2023-10-13T02:46:22;15.27;;;3.60;;
4424;SDS011;2225;53.568;13.266;2023-10-13T02:48:51;19.40;;;4.60;;
4424;SDS011;2225;53.568;13.266;2023-10-13T02:51:22;23.50;;;5.50;;
4424;SDS011;2225;53.568;13.266;2023-10-13T02:53:57;17.40;;;4.23;;
4424;SDS011;2225;53.568;13.266;2023-10-13T02:56:29;17.33;;;4.90;;
4424;SDS011;2225;53.568;13.266;2023-10-13T02:58:56;17.40;;;4.60;;
4424;SDS011;2225;53.568;13.266;2023-10-13T03:01:23;20.00;;;5.03;;
4424;SDS011;2225;53.568;13.266;2023-10-13T03:03:56;18.87;;;4.70;;
4424;SDS011;2225;53.568;13.266;2023-10-13T03:06:25;17.03;;;4.30;;
4424;SDS011;2225;53.568;13.266;2023-10-13T03:09:00;14.77;;;4.40;;
4424;SDS011;2225;53.568;13.266;2023-10-13T03:11:45;21.17;;;4.63;;
4424;SDS011;2225;53.568;13.266;2023-10-13T03:14:15;20.37;;;5.00;;
4424;SDS011;2225;53.568;13.266;2023-10-13T03:16:58;20.83;;;5.60;;
4424;SDS011;2225;53.568;13.266;2023-10-13T03:19:32;25.90;;;5.10;;
4424;SDS011;2225;53.568;13.266;2023-10-13T03:22:01;13.13;;;4.17;;
4424;SDS011;2225;53.568;13.266;2023-10-13T03:24:42;18.73;;;4.80;;
4424;SDS011;2225;53.568;13.266;2023-10-13T03:27:14;19.53;;;5.47;;
4424;SDS011;2225;53.568;13.266;2023-10-13T03:29:49;18.50;;;5.60;;
4424;SDS011;2225;53.568;13.266;2023-10-13T03:32:22;17.77;;;5.17;;
4424;SDS011;2225;53.568;13.266;2023-10-13T03:34:53;24.07;;;5.27;;
4424;SDS011;2225;53.568;13.266;2023-10-13T03:37:26;26.47;;;5.23;;
4424;SDS011;2225;53.568;13.266;2023-10-13T03:40:07;25.70;;;6.30;;
4424;SDS011;2225;53.568;13.266;2023-10-13T03:42:48;17.43;;;5.37;;
4424;SDS011;2225;53.568;13.266;2023-10-13T03:45:39;17.70;;;5.20;;
4424;SDS011;2225;53.568;13.266;2023-10-13T03:48:10;19.67;;;6.20;;
4424;SDS011;2225;53.568;13.266;2023-10-13T03:50:57;19.50;;;6.47;;
4424;SDS011;2225;53.568;13.266;2023-10-13T03:53:37;15.87;;;6.30;;
4424;SDS011;2225;53.568;13.266;2023-10-13T03:56:25;26.33;;;6.60;;
4424;SDS011;2225;53.568;13.266;2023-10-13T03:58:59;21.43;;;6.57;;
4424;SDS011;2225;53.568;13.266;2023-10-13T04:01:32;18.10;;;5.20;;
4424;SDS011;2225;53.568;13.266;2023-10-13T04:04:18;21.00;;;6.13;;
4424;SDS011;2225;53.568;13.266;2023-10-13T04:07:03;19.80;;;6.53;;
4424;SDS011;2225;53.568;13.266;2023-10-13T04:09:31;19.10;;;6.30;;
4424;SDS011;2225;53.568;13.266;2023-10-13T04:11:58;17.30;;;6.90;;
4424;SDS011;2225;53.568;13.266;2023-10-13T04:14:33;19.37;;;6.13;;
4424;SDS011;2225;53.568;13.266;2023-10-13T04:17:20;16.30;;;6.83;;
4424;SDS011;2225;53.568;13.266;2023-10-13T04:19:55;23.40;;;9.07;;
4424;SDS011;2225;53.568;13.266;2023-10-13T04:22:35;25.40;;;9.00;;
4424;SDS011;2225;53.568;13.266;2023-10-13T04:28:25;42.73;;;10.20;;
4424;SDS011;2225;53.568;13.266;2023-10-13T04:31:04;30.47;;;10.67;;
4424;SDS011;2225;53.568;13.266;2023-10-13T04:33:38;31.07;;;11.73;;
4424;SDS011;2225;53.568;13.266;2023-10-13T04:36:27;34.63;;;12.00;;
4424;SDS011;2225;53.568;13.266;2023-10-13T04:38:55;40.97;;;10.40;;
4424;SDS011;2225;53.568;13.266;2023-10-13T04:41:38;38.67;;;11.03;;
4424;SDS011;2225;53.568;13.266;2023-10-13T04:44:15;41.50;;;11.43;;
4424;SDS011;2225;53.568;13.266;2023-10-13T04:47:02;36.33;;;11.50;;
4424;SDS011;2225;53.568;13.266;2023-10-13T04:49:30;34.80;;;12.50;;
4424;SDS011;2225;53.568;13.266;2023-10-13T04:52:02;27.90;;;10.37;;
4424;SDS011;2225;53.568;13.266;2023-10-13T04:54:42;27.57;;;12.73;;
4424;SDS011;2225;53.568;13.266;2023-10-13T04:57:19;33.83;;;12.67;;
4424;SDS011;2225;53.568;13.266;2023-10-13T04:59:59;35.33;;;13.20;;
4424;SDS011;2225;53.568;13.266;2023-10-13T05:02:37;34.60;;;12.97;;
4424;SDS011;2225;53.568;13.266;2023-10-13T05:05:07;44.47;;;13.17;;
4424;SDS011;2225;53.568;13.266;2023-10-13T05:07:43;36.67;;;13.40;;
4424;SDS011;2225;53.568;13.266;2023-10-13T05:10:32;31.17;;;13.13;;
4424;SDS011;2225;53.568;13.266;2023-10-13T05:13:20;43.47;;;14.67;;
4424;SDS011;2225;53.568;13.266;2023-10-13T05:16:05;32.23;;;13.97;;
4424;SDS011;2225;53.568;13.266;2023-10-13T05:18:51;39.53;;;15.00;;
4424;SDS011;2225;53.568;13.266;2023-10-13T05:21:37;42.53;;;14.70;;
4424;SDS011;2225;53.568;13.266;2023-10-13T05:24:23;49.83;;;14.20;;
4424;SDS011;2225;53.568;13.266;2023-10-13T05:27:09;34.37;;;14.03;;
4424;SDS011;2225;53.568;13.266;2023-10-13T05:29:54;46.73;;;14.60;;
4424;SDS011;2225;53.568;13.266;2023-10-13T05:32:40;44.97;;;14.77;;
4424;SDS011;2225;53.568;13.266;2023-10-13T05:35:42;35.70;;;14.00;;
4424;SDS011;2225;53.568;13.266;2023-10-13T05:38:30;46.67;;;16.10;;
4424;SDS011;2225;53.568;13.266;2023-10-13T05:41:15;35.63;;;14.80;;
4424;SDS011;2225;53.568;13.266;2023-10-13T05:44:01;30.90;;;14.27;;
4424;SDS011;2225;53.568;13.266;2023-10-13T05:46:46;36.63;;;17.30;;
4424;SDS011;2225;53.568;13.266;2023-10-13T05:49:36;31.93;;;16.27;;
4424;SDS011;2225;53.568;13.266;2023-10-13T05:52:31;34.90;;;14.53;;
4424;SDS011;2225;53.568;13.266;2023-10-13T05:55:17;32.83;;;15.67;;
4424;SDS011;2225;53.568;13.266;2023-10-13T05:58:02;33.10;;;16.23;;
4424;SDS011;2225;53.568;13.266;2023-10-13T06:00:48;34.20;;;16.23;;
4424;SDS011;2225;53.568;13.266;2023-10-13T06:03:33;33.67;;;14.03;;
4424;SDS011;2225;53.568;13.266;2023-10-13T06:06:19;42.97;;;15.83;;
4424;SDS011;2225;53.568;13.266;2023-10-13T06:09:04;28.63;;;15.07;;
4424;SDS011;2225;53.568;13.266;2023-10-13T06:11:49;29.87;;;13.10;;
4424;SDS011;2225;53.568;13.266;2023-10-13T06:14:35;29.87;;;14.63;;
4424;SDS011;2225;53.568;13.266;2023-10-13T06:17:21;24.13;;;12.80;;
4424;SDS011;2225;53.568;13.266;2023-10-13T06:20:06;41.50;;;14.73;;
4424;SDS011;2225;53.568;13.266;2023-10-13T06:22:52;29.63;;;11.20;;
4424;SDS011;2225;53.568;13.266;2023-10-13T06:25:38;24.83;;;11.27;;
4424;SDS011;2225;53.568;13.266;2023-10-13T06:28:24;24.00;;;11.23;;
4424;SDS011;2225;53.568;13.266;2023-10-13T06:31:10;20.70;;;10.37;;
4424;SDS011;2225;53.568;13.266;2023-10-13T06:33:52;18.70;;;9.50;;
4424;SDS011;2225;53.568;13.266;2023-10-13T06:36:22;25.90;;;10.30;;
4424;SDS011;2225;53.568;13.266;2023-10-13T06:38:49;20.83;;;9.10;;
4424;SDS011;2225;53.568;13.266;2023-10-13T06:41:22;20.13;;;9.00;;
4424;SDS011;2225;53.568;13.266;2023-10-13T06:44:00;16.70;;;8.77;;
4424;SDS011;2225;53.568;13.266;2023-10-13T06:46:27;23.43;;;8.97;;
4424;SDS011;2225;53.568;13.266;2023-10-13T06:48:55;15.43;;;8.73;;
4424;SDS011;2225;53.568;13.266;2023-10-13T06:51:26;19.47;;;8.90;;
4424;SDS011;2225;53.568;13.266;2023-10-13T06:53:58;20.10;;;9.30;;
4424;SDS011;2225;53.568;13.266;2023-10-13T06:56:26;16.70;;;8.13;;
4424;SDS011;2225;53.568;13.266;2023-10-13T06:58:54;17.00;;;8.67;;
4424;SDS011;2225;53.568;13.266;2023-10-13T07:01:31;18.53;;;7.60;;
4424;SDS011;2225;53.568;13.266;2023-10-13T07:04:08;18.33;;;8.43;;
4424;SDS011;2225;53.568;13.266;2023-10-13T07:06:44;18.90;;;7.70;;
4424;SDS011;2225;53.568;13.266;2023-10-13T07:09:15;18.00;;;8.50;;
4424;SDS011;2225;53.568;13.266;2023-10-13T07:12:01;19.80;;;9.40;;
4424;SDS011;2225;53.568;13.266;2023-10-13T07:14:32;17.50;;;7.80;;
4424;SDS011;2225;53.568;13.266;2023-10-13T07:17:00;25.03;;;9.97;;
4424;SDS011;2225;53.568;13.266;2023-10-13T07:19:31;15.27;;;7.47;;
4424;SDS011;2225;53.568;13.266;2023-10-13T07:22:02;14.83;;;8.13;;
4424;SDS011;2225;53.568;13.266;2023-10-13T07:24:49;13.37;;;6.63;;
4424;SDS011;2225;53.568;13.266;2023-10-13T07:27:20;15.57;;;8.00;;
4424;SDS011;2225;53.568;13.266;2023-10-13T07:29:52;12.80;;;7.70;;
4424;SDS011;2225;53.568;13.266;2023-10-13T07:32:40;16.60;;;7.50;;
4424;SDS011;2225;53.568;13.266;2023-10-13T07:35:17;15.43;;;7.97;;
4424;SDS011;2225;53.568;13.266;2023-10-13T07:37:46;17.40;;;8.70;;
4424;SDS011;2225;53.568;13.266;2023-10-13T07:40:19;17.27;;;8.97;;
4424;SDS011;2225;53.568;13.266;2023-10-13T07:42:53;17.60;;;10.27;;
4424;SDS011;2225;53.568;13.266;2023-10-13T07:45:29;22.50;;;12.07;;
4424;SDS011;2225;53.568;13.266;2023-10-13T07:48:06;19.00;;;11.07;;
4424;SDS011;2225;53.568;13.266;2023-10-13T07:50:43;18.83;;;10.93;;
4424;SDS011;2225;53.568;13.266;2023-10-13T07:53:12;17.67;;;10.57;;
4424;SDS011;2225;53.568;13.266;2023-10-13T07:55:48;19.20;;;10.70;;
4424;SDS011;2225;53.568;13.266;2023-10-13T07:58:22;18.10;;;10.80;;
4424;SDS011;2225;53.568;13.266;2023-10-13T08:00:53;23.00;;;11.10;;
4424;SDS011;2225;53.568;13.266;2023-10-13T08:03:35;23.87;;;11.20;;
4424;SDS011;2225;53.568;13.266;2023-10-13T08:06:12;18.90;;;11.67;;
4424;SDS011;2225;53.568;13.266;2023-10-13T08:08:47;16.67;;;10.60;;
4424;SDS011;2225;53.568;13.266;2023-10-13T08:11:20;22.10;;;11.93;;
4424;SDS011;2225;53.568;13.266;2023-10-13T08:13:54;20.20;;;9.47;;
4424;SDS011;2225;53.568;13.266;2023-10-13T08:16:40;19.90;;;10.87;;
4424;SDS011;2225;53.568;13.266;2023-10-13T08:19:24;24.10;;;11.60;;
4424;SDS011;2225;53.568;13.266;2023-10-13T08:22:07;19.03;;;10.70;;
4424;SDS011;2225;53.568;13.266;2023-10-13T08:24:51;19.37;;;10.20;;
4424;SDS011;2225;53.568;13.266;2023-10-13T08:27:19;29.93;;;10.47;;
4424;SDS011;2225;53.568;13.266;2023-10-13T08:30:01;18.97;;;10.10;;
4424;SDS011;2225;53.568;13.266;2023-10-13T08:32:48;22.03;;;10.13;;
4424;SDS011;2225;53.568;13.266;2023-10-13T08:35:21;20.10;;;11.07;;
4424;SDS011;2225;53.568;13.266;2023-10-13T08:37:50;16.17;;;10.60;;
4424;SDS011;2225;53.568;13.266;2023-10-13T08:40:22;30.83;;;11.57;;
4424;SDS011;2225;53.568;13.266;2023-10-13T08:43:11;20.60;;;10.73;;
4424;SDS011;2225;53.568;13.266;2023-10-13T08:45:40;18.50;;;10.80;;
4424;SDS011;2225;53.568;13.266;2023-10-13T08:48:11;18.50;;;10.43;;
4424;SDS011;2225;53.568;13.266;2023-10-13T08:50:46;22.30;;;11.73;;
4424;SDS011;2225;53.568;13.266;2023-10-13T08:53:18;19.00;;;10.30;;
4424;SDS011;2225;53.568;13.266;2023-10-13T08:56:10;17.13;;;9.23;;
4424;SDS011;2225;53.568;13.266;2023-10-13T08:58:42;22.10;;;11.30;;
4424;SDS011;2225;53.568;13.266;2023-10-13T09:04:12;20.37;;;10.10;;
4424;SDS011;2225;53.568;13.266;2023-10-13T09:06:50;24.10;;;10.27;;
4424;SDS011;2225;53.568;13.266;2023-10-13T09:12:17;17.23;;;10.23;;
4424;SDS011;2225;53.568;13.266;2023-10-13T09:15:05;25.10;;;10.30;;
4424;SDS011;2225;53.568;13.266;2023-10-13T09:17:41;20.33;;;10.90;;
4424;SDS011;2225;53.568;13.266;2023-10-13T09:20:14;20.27;;;10.00;;
4424;SDS011;2225;53.568;13.266;2023-10-13T09:22:52;15.40;;;8.60;;
4424;SDS011;2225;53.568;13.266;2023-10-13T09:25:37;19.83;;;9.53;;
4424;SDS011;2225;53.568;13.266;2023-10-13T09:28:20;15.57;;;9.07;;
4424;SDS011;2225;53.568;13.266;2023-10-13T09:30:53;21.73;;;9.53;;
4424;SDS011;2225;53.568;13.266;2023-10-13T09:33:24;23.70;;;11.33;;
4424;SDS011;2225;53.568;13.266;2023-10-13T09:36:22;19.53;;;10.60;;
4424;SDS011;2225;53.568;13.266;2023-10-13T09:38:48;17.63;;;10.10;;
4424;SDS011;2225;53.568;13.266;2023-10-13T09:41:39;16.63;;;9.63;;
4424;SDS011;2225;53.568;13.266;2023-10-13T09:44:07;21.80;;;10.90;;
4424;SDS011;2225;53.568;13.266;2023-10-13T09:46:37;23.27;;;10.00;;
4424;SDS011;2225;53.568;13.266;2023-10-13T09:49:11;24.00;;;9.67;;
4424;SDS011;2225;53.568;13.266;2023-10-13T09:52:00;23.10;;;10.80;;
4424;SDS011;2225;53.568;13.266;2023-10-13T09:54:34;16.17;;;8.47;;
4424;SDS011;2225;53.568;13.266;2023-10-13T09:57:13;20.77;;;8.40;;
4424;SDS011;2225;53.568;13.266;2023-10-13T09:59:46;19.93;;;9.60;;
4424;SDS011;2225;53.568;13.266;2023-10-13T10:02:21;13.90;;;8.80;;
4424;SDS011;2225;53.568;13.266;2023-10-13T10:04:53;19.17;;;8.50;;
4424;SDS011;2225;53.568;13.266;2023-10-13T10:07:42;17.13;;;9.50;;
4424;SDS011;2225;53.568;13.266;2023-10-13T10:10:20;14.70;;;8.60;;
4424;SDS011;2225;53.568;13.266;2023-10-13T10:13:00;19.47;;;8.60;;
4424;SDS011;2225;53.568;13.266;2023-10-13T10:15:41;14.30;;;8.70;;
4424;SDS011;2225;53.568;13.266;2023-10-13T10:18:17;17.50;;;8.70;;
4424;SDS011;2225;53.568;13.266;2023-10-13T10:20:49;15.80;;;8.80;;
4424;SDS011;2225;53.568;13.266;2023-10-13T10:23:23;24.33;;;9.50;;
4424;SDS011;2225;53.568;13.266;2023-10-13T10:25:58;19.43;;;8.67;;
4424;SDS011;2225;53.568;13.266;2023-10-13T10:28:46;20.70;;;11.20;;
4424;SDS011;2225;53.568;13.266;2023-10-13T10:31:13;27.77;;;15.43;;
4424;SDS011;2225;53.568;13.266;2023-10-13T10:33:43;24.13;;;13.80;;
4424;SDS011;2225;53.568;13.266;2023-10-13T10:36:11;22.60;;;13.27;;
4424;SDS011;2225;53.568;13.266;2023-10-13T10:38:53;32.47;;;18.40;;
4424;SDS011;2225;53.568;13.266;2023-10-13T10:41:26;38.83;;;22.00;;
4424;SDS011;2225;53.568;13.266;2023-10-13T10:44:13;20.57;;;11.60;;
4424;SDS011;2225;53.568;13.266;2023-10-13T10:46:43;19.03;;;10.00;;
4424;SDS011;2225;53.568;13.266;2023-10-13T10:49:27;14.33;;;7.83;;
4424;SDS011;2225;53.568;13.266;2023-10-13T10:52:00;27.00;;;8.10;;
4424;SDS011;2225;53.568;13.266;2023-10-13T10:54:30;14.57;;;7.73;;
4424;SDS011;2225;53.568;13.266;2023-10-13T10:57:01;19.50;;;8.73;;
4424;SDS011;2225;53.568;13.266;2023-10-13T10:59:37;17.47;;;7.30;;
4424;SDS011;2225;53.568;13.266;2023-10-13T11:02:05;15.03;;;8.87;;
4424;SDS011;2225;53.568;13.266;2023-10-13T11:04:35;15.60;;;9.03;;
4424;SDS011;2225;53.568;13.266;2023-10-13T11:07:07;17.80;;;9.20;;
4424;SDS011;2225;53.568;13.266;2023-10-13T11:09:35;22.97;;;11.57;;
4424;SDS011;2225;53.568;13.266;2023-10-13T11:12:13;11.43;;;6.80;;
4424;SDS011;2225;53.568;13.266;2023-10-13T11:14:42;17.43;;;6.90;;
4424;SDS011;2225;53.568;13.266;2023-10-13T11:17:22;13.97;;;6.13;;
4424;SDS011;2225;53.568;13.266;2023-10-13T11:20:07;10.93;;;5.30;;
4424;SDS011;2225;53.568;13.266;2023-10-13T11:22:52;10.47;;;5.57;;
4424;SDS011;2225;53.568;13.266;2023-10-13T11:25:25;16.10;;;5.90;;
4424;SDS011;2225;53.568;13.266;2023-10-13T11:30:47;13.73;;;5.10;;
4424;SDS011;2225;53.568;13.266;2023-10-13T11:33:18;11.33;;;5.20;;
4424;SDS011;2225;53.568;13.266;2023-10-13T11:35:50;10.20;;;4.50;;
4424;SDS011;2225;53.568;13.266;2023-10-13T11:38:20;9.03;;;4.87;;
4424;SDS011;2225;53.568;13.266;2023-10-13T11:41:02;10.80;;;4.30;;
4424;SDS011;2225;53.568;13.266;2023-10-13T11:43:50;9.97;;;5.10;;
4424;SDS011;2225;53.568;13.266;2023-10-13T11:46:20;11.30;;;5.53;;
4424;SDS011;2225;53.568;13.266;2023-10-13T11:49:03;11.23;;;5.50;;
4424;SDS011;2225;53.568;13.266;2023-10-13T11:51:51;16.10;;;5.37;;
4424;SDS011;2225;53.568;13.266;2023-10-13T11:54:19;10.53;;;4.97;;
4424;SDS011;2225;53.568;13.266;2023-10-13T11:56:49;12.57;;;6.40;;
4424;SDS011;2225;53.568;13.266;2023-10-13T11:59:16;10.80;;;5.20;;
4424;SDS011;2225;53.568;13.266;2023-10-13T12:01:45;14.40;;;6.13;;
4424;SDS011;2225;53.568;13.266;2023-10-13T12:04:34;14.67;;;5.57;;
4424;SDS011;2225;53.568;13.266;2023-10-13T12:07:15;13.83;;;5.80;;
4424;SDS011;2225;53.568;13.266;2023-10-13T12:10:01;13.00;;;6.50;;
4424;SDS011;2225;53.568;13.266;2023-10-13T12:12:28;12.63;;;6.53;;
4424;SDS011;2225;53.568;13.266;2023-10-13T12:14:57;11.30;;;5.67;;
4424;SDS011;2225;53.568;13.266;2023-10-13T12:17:25;13.20;;;6.20;;
4424;SDS011;2225;53.568;13.266;2023-10-13T12:20:03;10.43;;;5.27;;
4424;SDS011;2225;53.568;13.266;2023-10-13T12:22:37;14.10;;;5.90;;
4424;SDS011;2225;53.568;13.266;2023-10-13T12:25:05;30.10;;;9.83;;
4424;SDS011;2225;53.568;13.266;2023-10-13T12:27:54;11.60;;;5.57;;
4424;SDS011;2225;53.568;13.266;2023-10-13T12:30:32;15.17;;;6.00;;
4424;SDS011;2225;53.568;13.266;2023-10-13T12:33:15;11.40;;;6.00;;
4424;SDS011;2225;53.568;13.266;2023-10-13T12:36:00;14.10;;;6.80;;
4424;SDS011;2225;53.568;13.266;2023-10-13T12:38:37;19.33;;;6.93;;
4424;SDS011;2225;53.568;13.266;2023-10-13T12:41:13;17.40;;;6.37;;
4424;SDS011;2225;53.568;13.266;2023-10-13T12:44:02;13.83;;;6.90;;
4424;SDS011;2225;53.568;13.266;2023-10-13T12:46:49;16.73;;;6.27;;
4424;SDS011;2225;53.568;13.266;2023-10-13T12:49:36;11.80;;;5.50;;
4424;SDS011;2225;53.568;13.266;2023-10-13T12:52:18;17.27;;;5.73;;
4424;SDS011;2225;53.568;13.266;2023-10-13T12:54:46;15.93;;;5.87;;
4424;SDS011;2225;53.568;13.266;2023-10-13T12:57:20;15.20;;;6.27;;
4424;SDS011;2225;53.568;13.266;2023-10-13T12:59:49;14.73;;;5.10;;
4424;SDS011;2225;53.568;13.266;2023-10-13T13:02:20;12.17;;;4.93;;
4424;SDS011;2225;53.568;13.266;2023-10-13T13:04:48;23.40;;;5.47;;
4424;SDS011;2225;53.568;13.266;2023-10-13T13:07:20;15.33;;;5.80;;
4424;SDS011;2225;53.568;13.266;2023-10-13T13:09:47;12.27;;;5.20;;
4424;SDS011;2225;53.568;13.266;2023-10-13T13:12:14;13.93;;;5.17;;
4424;SDS011;2225;53.568;13.266;2023-10-13T13:14:42;11.37;;;4.93;;
4424;SDS011;2225;53.568;13.266;2023-10-13T13:17:13;12.67;;;5.07;;
4424;SDS011;2225;53.568;13.266;2023-10-13T13:19:40;15.47;;;5.03;;
4424;SDS011;2225;53.568;13.266;2023-10-13T13:22:08;16.30;;;5.23;;
4424;SDS011;2225;53.568;13.266;2023-10-13T13:24:39;19.07;;;5.57;;
4424;SDS011;2225;53.568;13.266;2023-10-13T13:27:13;14.40;;;5.37;;
4424;SDS011;2225;53.568;13.266;2023-10-13T13:29:44;13.27;;;5.47;;
4424;SDS011;2225;53.568;13.266;2023-10-13T13:32:11;11.77;;;4.90;;
4424;SDS011;2225;53.568;13.266;2023-10-13T13:35:04;17.30;;;5.83;;
4424;SDS011;2225;53.568;13.266;2023-10-13T13:37:31;14.20;;;5.20;;
4424;SDS011;2225;53.568;13.266;2023-10-13T13:39:58;14.50;;;5.67;;
4424;SDS011;2225;53.568;13.266;2023-10-13T13:42:42;12.93;;;6.50;;
4424;SDS011;2225;53.568;13.266;2023-10-13T13:45:20;13.50;;;4.87;;
4424;SDS011;2225;53.568;13.266;2023-10-13T13:47:54;11.87;;;4.90;;
4424;SDS011;2225;53.568;13.266;2023-10-13T13:50:22;19.80;;;5.97;;
4424;SDS011;2225;53.568;13.266;2023-10-13T13:52:54;13.57;;;5.20;;
4424;SDS011;2225;53.568;13.266;2023-10-13T13:55:23;14.37;;;5.30;;
4424;SDS011;2225;53.568;13.266;2023-10-13T13:57:55;15.67;;;6.00;;
4424;SDS011;2225;53.568;13.266;2023-10-13T14:00:23;16.40;;;6.17;;
4424;SDS011;2225;53.568;13.266;2023-10-13T14:03:07;15.17;;;5.77;;
4424;SDS011;2225;53.568;13.266;2023-10-13T14:05:58;13.20;;;5.10;;
4424;SDS011;2225;53.568;13.266;2023-10-13T14:08:26;12.93;;;4.90;;
4424;SDS011;2225;53.568;13.266;2023-10-13T14:10:56;13.27;;;4.90;;
4424;SDS011;2225;53.568;13.266;2023-10-13T14:13:38;18.47;;;6.23;;
4424;SDS011;2225;53.568;13.266;2023-10-13T14:16:16;18.40;;;5.30;;
4424;SDS011;2225;53.568;13.266;2023-10-13T14:18:47;19.43;;;5.40;;
4424;SDS011;2225;53.568;13.266;2023-10-13T14:21:16;19.07;;;5.40;;
4424;SDS011;2225;53.568;13.266;2023-10-13T14:23:48;25.17;;;6.40;;
4424;SDS011;2225;53.568;13.266;2023-10-13T14:26:20;17.03;;;5.67;;
4424;SDS011;2225;53.568;13.266;2023-10-13T14:28:47;16.53;;;6.00;;
4424;SDS011;2225;53.568;13.266;2023-10-13T14:31:29;14.07;;;4.80;;
4424;SDS011;2225;53.568;13.266;2023-10-13T14:33:57;14.90;;;6.37;;
4424;SDS011;2225;53.568;13.266;2023-10-13T14:36:25;15.43;;;6.03;;
4424;SDS011;2225;53.568;13.266;2023-10-13T14:38:55;13.47;;;5.87;;
4424;SDS011;2225;53.568;13.266;2023-10-13T14:41:23;13.90;;;5.90;;
4424;SDS011;2225;53.568;13.266;2023-10-13T14:43:50;15.00;;;5.80;;
4424;SDS011;2225;53.568;13.266;2023-10-13T14:46:18;22.40;;;6.23;;
4424;SDS011;2225;53.568;13.266;2023-10-13T14:48:53;18.13;;;5.90;;
4424;SDS011;2225;53.568;13.266;2023-10-13T14:51:20;16.67;;;5.83;;
4424;SDS011;2225;53.568;13.266;2023-10-13T14:53:47;12.10;;;6.03;;
4424;SDS011;2225;53.568;13.266;2023-10-13T14:56:19;17.67;;;5.90;;
4424;SDS011;2225;53.568;13.266;2023-10-13T14:58:46;14.20;;;5.83;;
4424;SDS011;2225;53.568;13.266;2023-10-13T15:01:13;18.57;;;6.10;;
4424;SDS011;2225;53.568;13.266;2023-10-13T15:03:49;17.47;;;6.07;;
4424;SDS011;2225;53.568;13.266;2023-10-13T15:06:22;20.43;;;6.50;;
4424;SDS011;2225;53.568;13.266;2023-10-13T15:08:51;17.43;;;6.10;;
4424;SDS011;2225;53.568;13.266;2023-10-13T15:11:22;15.17;;;6.30;;
4424;SDS011;2225;53.568;13.266;2023-10-13T15:13:53;14.67;;;6.87;;
4424;SDS011;2225;53.568;13.266;2023-10-13T15:16:23;17.03;;;7.87;;
4424;SDS011;2225;53.568;13.266;2023-10-13T15:18:53;27.93;;;11.80;;
4424;SDS011;2225;53.568;13.266;2023-10-13T15:21:21;21.50;;;9.13;;
4424;SDS011;2225;53.568;13.266;2023-10-13T15:23:54;23.40;;;6.60;;
4424;SDS011;2225;53.568;13.266;2023-10-13T15:26:30;19.43;;;8.10;;
4424;SDS011;2225;53.568;13.266;2023-10-13T15:28:59;21.03;;;6.70;;
4424;SDS011;2225;53.568;13.266;2023-10-13T15:31:27;18.60;;;7.97;;
4424;SDS011;2225;53.568;13.266;2023-10-13T15:34:03;21.93;;;7.20;;
4424;SDS011;2225;53.568;13.266;2023-10-13T15:36:33;20.53;;;6.77;;
4424;SDS011;2225;53.568;13.266;2023-10-13T15:39:00;17.57;;;7.57;;
4424;SDS011;2225;53.568;13.266;2023-10-13T15:41:28;20.00;;;6.23;;
4424;SDS011;2225;53.568;13.266;2023-10-13T15:43:55;16.63;;;7.10;;
4424;SDS011;2225;53.568;13.266;2023-10-13T15:46:23;22.47;;;6.57;;